Regionale Übersicht

METAR et TAF

Vendredi 19 avril 2019 à 06h35

Visibilités horizontales observées à différents aéroports. Les observations (METAR) et prévisions aéronautiques (TAF) complètes sont disponibles en cliquant sur l’icône correspondante.

  • Luxemburg (ELLX)

    Taf: TAF ELLX 182300Z 1900/2006 05010KT CAVOK=

    Metar: METAR ELLX 190420Z 05012KT CAVOK 12/02 Q1025 NOSIG=

  • Spangdahlem (ETAD)

    Taf: TAF ETAD 190400Z 1904/2010 09007KT 9999 SKC QNH3024INS BECMG 1906/1907 09012G18KT 9999 SKC QNH3027INS BECMG 1918/1919 04003KT 9999 SKC QNH3025INS TX18/1914Z TN08/1905Z=

    Metar: nil

  • Metz/Nancy (LFJL)

    Taf: TAF LFJL 182300Z 1900/1924 08010KT CAVOK=

    Metar: nil

  • Saarbrücken/Intl (EDDR)

    Taf: TAF EDDR 182300Z 1900/1924 06008KT CAVOK=

    Metar: nil

  • Hahn (EDFH)

    Taf: TAF EDFH 182300Z 1900/1924 11010KT CAVOK=

    Metar: nil

  • Ramstein (ETAR)

    Taf: TAF ETAR 190159Z 1902/2008 VRB06KT 9999 SKC QNH3024INS BECMG 1908/1909 06009KT 9999 SKC QNH3031INS BECMG 1917/1918 VRB06KT 9999 SKC QNH3034INS TX22/1915Z TN02/1905Z=

    Metar: nil

  • Nancy/Ochey (LFSO)

    Taf: TAF LFSO 190200Z NIL=

    Metar: nil

  • Liège Bierset (EBLG)

    Taf: TAF EBLG 182310Z 1900/2006 08007KT CAVOK=

    Metar: nil

  • Saint-Dizier (LFSI)

    Taf: TAF LFSI 190200Z 1903/2003 10010KT CAVOK TEMPO 1912/1920 4000 SHRA BKN035TCU SCT060 PROB40 TEMPO 1917/1920 TSRA BKN035CB=

    Metar: nil

  • Maastricht/Zuid Limburg (EHBK)

    Taf: TAF EHBK 182307Z 1900/2006 08008KT CAVOK=

    Metar: nil

  • Köln/Köln-Bonn (EDDK)

    Taf: TAF EDDK 182300Z 1900/2006 08006KT CAVOK BECMG 1907/1910 12011KT BECMG 1918/1921 09003KT=

    Metar: METAR EDDK 190420Z 11003KT 070V160 CAVOK 11/02 Q1027 NOSIG=

  • Charleroi (EBCI)

    Taf: TAF EBCI 182310Z 1900/2006 08007KT CAVOK=

    Metar: nil

  • Wiesbaden (ETOU)

    Taf: TAF AMD ETOU 182158Z 1820/2001 05009KT 9999 SKC QNH3022INS BECMG 1907/1908 09012KT 9999 SKC QNH3030INS BECMG 1916/1917 05009KT 9999 SKC QNH3034INS TX22/1914Z TN13/1905Z LAST NO AMDS AFT 1820=

    Metar: nil

  • Karlsruhe/Baden-Baden (EDSB)

    Taf: TAF EDSB 190300Z 1904/1924 01005KT CAVOK=

    Metar: nil

  • Chalons/Vatry (LFOK)

    Taf: TAF AMD LFOK 190316Z 1903/1924 06010KT CAVOK PROB30 1921/1924 3000 SHRA BKN050CB=

    Metar: nil

  • Brüssel (EBBR)

    Taf: TAF EBBR 182310Z 1900/2006 08007KT CAVOK=

    Metar: METAR EBBR 190420Z 08003KT CAVOK 10/03 Q1025 NOSIG=

  • Düsseldorf (EDDL)

    Taf: TAF AMD EDDL 190235Z 1902/2006 06004KT CAVOK BECMG 1907/1910 07010KT BECMG 1919/1922 04004KT=

    Metar: nil

  • Luxeuil (LFSX)

    Taf: TAF LFSX 190200Z NIL=

    Metar: nil

  • Eindhoven (EHEH)

    Taf: TAF EHEH 182339Z 1900/2006 07006KT CAVOK TEMPO 1910/1915 07007G17KT=

    Metar: nil

  • Niederrhein (EDLV)

    Taf: TAF EDLV 190320Z 1904/1924 VRB03KT CAVOK BECMG 1906/1909 08009KT BECMG 1917/1920 04004KT=

    Metar: nil

  • Dortmund/Wickede (EDLW)

    Taf: TAF EDLW 190351Z 1904/1924 06005KT CAVOK BECMG 1907/1910 08013KT BECMG 1920/1923 08005KT=

    Metar: nil

  • Stuttgart/Echterdingen (EDDS)

    Taf: TAF EDDS 182300Z 1900/1924 VRB03KT CAVOK BECMG 1907/1910 06007KT BECMG 1917/1920 VRB03KT=

    Metar: METAR EDDS 190420Z 07003KT 040V100 CAVOK 07/02 Q1025 NOSIG=

  • Basel-Mühlhausen (LFSB)

    Taf: TAF LFSB 182300Z 1900/1924 VRB03KT CAVOK TEMPO 1911/1919 FEW060TCU PROB40 TEMPO 1912/1917 36010KT FEW055CB=

    Metar: METAR LFSB 190400Z VRB01KT CAVOK 07/05 Q1024 NOSIG=

  • Lille (LFQQ)

    Taf: TAF LFQQ 182300Z 1900/2006 07010KT CAVOK BECMG 1921/1924 36013KT BECMG 2000/2003 VRB03KT=

    Metar: nil

  • Paris/Charles de Gaulle (LFPG)

    Taf: TAF AMD LFPG 190003Z 1900/2006 07010KT CAVOK TX23/1915Z TN11/1905Z PROB40 TEMPO 1920/2004 -SHRA SCT050TCU PROB30 TEMPO 2000/2003 36015G25KT 4000 SHRA SCT050CB=

    Metar: nil

  • Paderborn/Lippstadt (EDLP)

    Taf: TAF EDLP 182300Z 1900/1924 09007KT CAVOK BECMG 1906/1909 12013KT BECMG 1918/1921 11005KT=

    Metar: nil

  • Paris/Le Bourget (LFPB)

    Taf: TAF LFPB 182300Z 1900/1924 07010KT CAVOK PROB40 TEMPO 1920/1924 -SHRA SCT050TCU=

    Metar: METAR LFPB 190400Z AUTO 35005KT CAVOK 11/05 Q1022 BECMG 07010KT=

  • Rotterdam (EHRD)

    Taf: TAF EHRD 182314Z 1900/2006 06009KT CAVOK=

    Metar: nil

  • Zürich/Kloten (LSZH)

    Taf: TAF LSZH 190225Z 1903/2009 VRB03KT CAVOK TX22/1915Z TN04/1904Z TN04/2004Z BECMG 1909/1912 9999 FEW050 TEMPO 1912/1919 05005KT FEW040TCU PROB30 TEMPO 1912/1918 FEW040CB BECMG 1919/1922 CAVOK=

    Metar: METAR LSZH 190420Z VRB01KT 9999 MIFG NSC 05/04 Q1025 NOSIG=

  • Oostende/Intl (EBOS)

    Taf: TAF EBOS 182310Z 1900/2006 08009KT CAVOK TEMPO 1912/1918 02012KT=

    Metar: nil

  • Paris/Orly (LFPO)

    Taf: TAF LFPO 182300Z 1900/2006 05005KT CAVOK TEMPO 1914/1918 SCT060TCU PROB40 TEMPO 1921/2002 02015G25KT SHRA SCT060CB=

    Metar: nil

  • Beauvais (LFOB)

    Taf: TAF LFOB 182300Z 1900/1924 08010KT CAVOK PROB40 TEMPO 1919/1923 3000 SHRA BKN030CB=

    Metar: nil

  • Münster/Intl (EDDG)

    Taf: TAF EDDG 182300Z 1900/1924 06004KT CAVOK BECMG 1907/1910 09009KT BECMG 1919/1922 07004KT=

    Metar: METAR EDDG 190420Z 05004KT 020V090 CAVOK 09/02 Q1029 NOSIG=

  • Illesheim (ETIK)

    Taf: TAF AMD ETIK 182214Z 1822/1920 10009KT 9999 FEW100 QNH3023INS BECMG 1908/1909 10012G20KT 9999 FEW100 QNH3035INS BECMG 1917/1918 10009KT 9999 SKC QNH3037INS TX22/1916Z TN06/1904Z LAST NO AMDS AFT 1822 NEXT 2204=

    Metar: nil

  • Duebendorf (LSMD)

    Taf: TAF LSMD 181625Z 1817/1923 05005KT CAVOK TEMPO 1817/1820 9999 FEW060 PROB30 1902/1906 4000 MIFG NSC TEMPO 1910/1920 9999 FEW060 PROB30 TEMPO 1912/1919 FEW050TCU=

    Metar: nil

  • Villacoublay (LFPV)

    Taf: TAF LFPV 190200Z 1903/2003 04007KT CAVOK PROB30 TEMPO 1922/2002 10015G25KT 4500 SHRA SCT045CB=

    Metar: nil

  • Payerne (LSMP)

    Taf: TAF LSMP 181625Z 1817/1923 VRB03KT 8000 SCT080=

    Metar: nil

  • Amsterdam/Schipol (EHAM)

    Taf: TAF EHAM 182311Z 1900/2006 06009KT CAVOK=

    Metar: METAR EHAM 190425Z 05008KT CAVOK 11/05 Q1028 NOSIG=

  • Emmen (LSME)

    Taf: TAF LSME 181625Z 1817/1923 06005KT CAVOK TEMPO 1817/1920 9999 FEW060 PROB30 1902/1906 4000 MIFG PROB40 TEMPO 1914/1919 FEW050TCU=

    Metar: nil

  • Friedrichshafen (EDNY)

    Taf: TAF EDNY 182300Z 1900/1924 03005KT CAVOK BECMG 1907/1909 VRB03KT TEMPO 1910/1915 23005KT BECMG 1917/1919 03005KT=

    Metar: nil

  • Alpnach (LSMA)

    Taf: TAF LSMA 181625Z 1817/1923 05010KT CAVOK TEMPO 1817/1920 9999 FEW060 BECMG 1817/1819 VRB03KT BECMG 1909/1912 05010KT PROB40 TEMPO 1914/1919 FEW050TCU=

    Metar: nil

  • Meiringen (LSMM)

    Taf: TAF LSMM 181625Z 1817/1923 11010KT CAVOK PROB40 TEMPO 1817/1820 11015G25KT TEMPO 1817/1920 9999 FEW060 SCT090 BECMG 1818/1821 VRB03KT PROB40 TEMPO 1913/1919 4000 SHRA FEW050TCU=

    Metar: nil

  • Nürnberg (EDDN)

    Taf: TAF EDDN 182300Z 1900/1924 08005KT CAVOK BECMG 1907/1909 10011KT BECMG 1917/1919 07005KT=

    Metar: METAR EDDN 190420Z 08004KT CAVOK 10/01 Q1027 NOSIG=

  • Rouen (LFOP)

    Taf: TAF LFOP 182300Z NIL=

    Metar: nil

  • Evreux (LFOE)

    Taf: TAF LFOE 190200Z 1903/2003 04006KT CAVOK=

    Metar: nil

  • Erfurt/Bindersleben (EDDE)

    Taf: TAF EDDE 182300Z 1900/1924 08007KT CAVOK BECMG 1907/1909 08012KT BECMG 1916/1918 07007KT=

    Metar: nil